sensor_id;sensor_type;location;lat;lon;timestamp;pressure;altitude;pressure_sealevel;temperature;humidity
29371;BME280;16357;52.188;7.838;2023-04-04T00:00:13;102319.69;;;4.53;44.20
29371;BME280;16357;52.188;7.838;2023-04-04T00:02:40;102326.03;;;4.51;43.98
29371;BME280;16357;52.188;7.838;2023-04-04T00:05:07;102319.06;;;4.48;44.29
29371;BME280;16357;52.188;7.838;2023-04-04T00:07:34;102311.16;;;4.47;44.09
29371;BME280;16357;52.188;7.838;2023-04-04T00:10:01;102321.94;;;4.44;44.52
29371;BME280;16357;52.188;7.838;2023-04-04T00:12:27;102316.81;;;4.40;44.13
29371;BME280;16357;52.188;7.838;2023-04-04T00:14:55;102308.03;;;4.38;44.09
29371;BME280;16357;52.188;7.838;2023-04-04T00:17:22;102310.84;;;4.35;44.30
29371;BME280;16357;52.188;7.838;2023-04-04T00:19:49;102304.75;;;4.33;44.54
29371;BME280;16357;52.188;7.838;2023-04-04T00:22:15;102306.63;;;4.31;44.36
29371;BME280;16357;52.188;7.838;2023-04-04T00:24:43;102304.97;;;4.29;44.51
29371;BME280;16357;52.188;7.838;2023-04-04T00:27:09;102316.63;;;4.26;44.54
29371;BME280;16357;52.188;7.838;2023-04-04T00:29:35;102309.66;;;4.24;44.65
29371;BME280;16357;52.188;7.838;2023-04-04T00:32:02;102310.66;;;4.21;44.71
29371;BME280;16357;52.188;7.838;2023-04-04T00:34:29;102308.16;;;4.18;44.72
29371;BME280;16357;52.188;7.838;2023-04-04T00:36:55;102313.59;;;4.16;44.83
29371;BME280;16357;52.188;7.838;2023-04-04T00:39:21;102309.28;;;4.14;45.03
29371;BME280;16357;52.188;7.838;2023-04-04T00:41:49;102307.69;;;4.10;44.86
29371;BME280;16357;52.188;7.838;2023-04-04T00:44:15;102306.06;;;4.07;44.81
29371;BME280;16357;52.188;7.838;2023-04-04T00:46:42;102301.84;;;4.03;44.80
29371;BME280;16357;52.188;7.838;2023-04-04T00:49:09;102300.19;;;4.01;44.98
29371;BME280;16357;52.188;7.838;2023-04-04T00:51:35;102287.03;;;3.97;44.83
29371;BME280;16357;52.188;7.838;2023-04-04T00:54:02;102291.66;;;3.94;45.02
29371;BME280;16357;52.188;7.838;2023-04-04T00:56:29;102292.66;;;3.91;44.93
29371;BME280;16357;52.188;7.838;2023-04-04T00:58:59;102290.09;;;3.90;45.18
29371;BME280;16357;52.188;7.838;2023-04-04T01:01:26;102301.75;;;3.87;45.26
29371;BME280;16357;52.188;7.838;2023-04-04T01:03:52;102299.19;;;3.84;45.24
29371;BME280;16357;52.188;7.838;2023-04-04T01:06:19;102296.63;;;3.83;45.41
29371;BME280;16357;52.188;7.838;2023-04-04T01:08:46;102297.56;;;3.82;45.37
29371;BME280;16357;52.188;7.838;2023-04-04T01:11:12;102298.50;;;3.81;45.44
29371;BME280;16357;52.188;7.838;2023-04-04T01:13:39;102292.41;;;3.79;45.51
29371;BME280;16357;52.188;7.838;2023-04-04T01:16:08;102289.84;;;3.77;45.48
29371;BME280;16357;52.188;7.838;2023-04-04T01:18:35;102289.03;;;3.75;45.33
29371;BME280;16357;52.188;7.838;2023-04-04T01:21:07;102288.25;;;3.73;45.28
29371;BME280;16357;52.188;7.838;2023-04-04T01:23:48;102284.03;;;3.69;45.29
29371;BME280;16357;52.188;7.838;2023-04-04T01:26:14;102277.94;;;3.67;45.43
29371;BME280;16357;52.188;7.838;2023-04-04T01:28:41;102289.56;;;3.64;45.63
29371;BME280;16357;52.188;7.838;2023-04-04T01:31:09;102284.31;;;3.63;45.48
29371;BME280;16357;52.188;7.838;2023-04-04T01:33:42;102280.81;;;3.62;45.83
29371;BME280;16357;52.188;7.838;2023-04-04T01:41:13;102282.91;;;3.56;45.58
29371;BME280;16357;52.188;7.838;2023-04-04T01:43:43;102279.47;;;3.54;45.50
29371;BME280;16357;52.188;7.838;2023-04-04T01:46:11;102280.47;;;3.51;45.32
29371;BME280;16357;52.188;7.838;2023-04-04T01:48:37;102279.63;;;3.50;45.47
29371;BME280;16357;52.188;7.838;2023-04-04T01:51:04;102266.47;;;3.47;45.75
29371;BME280;16357;52.188;7.838;2023-04-04T01:53:31;102273.66;;;3.45;45.45
29371;BME280;16357;52.188;7.838;2023-04-04T01:55:57;102267.47;;;3.45;45.69
29371;BME280;16357;52.188;7.838;2023-04-04T01:58:24;102276.47;;;3.42;45.80
29371;BME280;16357;52.188;7.838;2023-04-04T02:00:51;102269.44;;;3.41;45.85
29371;BME280;16357;52.188;7.838;2023-04-04T02:03:18;102268.63;;;3.39;45.99
29371;BME280;16357;52.188;7.838;2023-04-04T02:05:44;102277.53;;;3.38;46.10
29371;BME280;16357;52.188;7.838;2023-04-04T02:08:11;102270.56;;;3.36;45.88
29371;BME280;16357;52.188;7.838;2023-04-04T02:10:38;102278.59;;;3.34;45.78
29371;BME280;16357;52.188;7.838;2023-04-04T02:13:05;102271.59;;;3.33;45.89
29371;BME280;16357;52.188;7.838;2023-04-04T02:15:35;102271.72;;;3.30;45.97
29371;BME280;16357;52.188;7.838;2023-04-04T02:18:01;102270.09;;;3.27;46.08
29371;BME280;16357;52.188;7.838;2023-04-04T02:20:28;102264.94;;;3.24;46.07
29371;BME280;16357;52.188;7.838;2023-04-04T02:22:55;102278.25;;;3.23;46.19
29371;BME280;16357;52.188;7.838;2023-04-04T02:25:23;102275.69;;;3.21;46.05
29371;BME280;16357;52.188;7.838;2023-04-04T02:27:50;102273.13;;;3.18;46.03
29371;BME280;16357;52.188;7.838;2023-04-04T02:30:17;102266.19;;;3.16;46.23
29371;BME280;16357;52.188;7.838;2023-04-04T02:32:44;102268.06;;;3.14;46.09
29371;BME280;16357;52.188;7.838;2023-04-04T02:35:12;102276.94;;;3.13;45.92
29371;BME280;16357;52.188;7.838;2023-04-04T02:37:38;102278.03;;;3.08;46.05
29371;BME280;16357;52.188;7.838;2023-04-04T02:40:05;102276.38;;;3.06;46.37
29371;BME280;16357;52.188;7.838;2023-04-04T02:42:32;102273.78;;;3.04;46.38
29371;BME280;16357;52.188;7.838;2023-04-04T02:44:58;102275.63;;;3.02;46.29
29371;BME280;16357;52.188;7.838;2023-04-04T02:47:25;102266.91;;;3.00;46.35
29371;BME280;16357;52.188;7.838;2023-04-04T02:49:51;102267.81;;;2.99;46.13
29371;BME280;16357;52.188;7.838;2023-04-04T02:52:19;102247.63;;;2.97;46.16
29371;BME280;16357;52.188;7.838;2023-04-04T02:54:46;102252.13;;;2.95;46.38
29371;BME280;16357;52.188;7.838;2023-04-04T02:57:13;102249.56;;;2.93;46.43
29371;BME280;16357;52.188;7.838;2023-04-04T02:59:39;102246.13;;;2.91;46.42
29371;BME280;16357;52.188;7.838;2023-04-04T03:02:05;102239.09;;;2.90;46.57
29371;BME280;16357;52.188;7.838;2023-04-04T03:04:32;102241.81;;;2.89;46.64
29371;BME280;16357;52.188;7.838;2023-04-04T03:06:58;102237.50;;;2.86;46.51
29371;BME280;16357;52.188;7.838;2023-04-04T03:09:25;102236.72;;;2.84;46.67
29371;BME280;16357;52.188;7.838;2023-04-04T03:11:51;102240.38;;;2.81;46.63
29371;BME280;16357;52.188;7.838;2023-04-04T03:14:17;102240.50;;;2.78;46.82
29371;BME280;16357;52.188;7.838;2023-04-04T03:16:44;102237.16;;;2.75;46.84
29371;BME280;16357;52.188;7.838;2023-04-04T03:19:10;102232.00;;;2.72;46.88
29371;BME280;16357;52.188;7.838;2023-04-04T03:21:37;102231.25;;;2.68;47.15
29371;BME280;16357;52.188;7.838;2023-04-04T03:24:03;102230.59;;;2.63;46.81
29371;BME280;16357;52.188;7.838;2023-04-04T03:26:30;102230.72;;;2.60;46.91
29371;BME280;16357;52.188;7.838;2023-04-04T03:28:56;102227.38;;;2.56;47.18
29371;BME280;16357;52.188;7.838;2023-04-04T03:31:22;102228.41;;;2.52;47.25
29371;BME280;16357;52.188;7.838;2023-04-04T03:33:49;102227.69;;;2.49;47.28
29371;BME280;16357;52.188;7.838;2023-04-04T03:36:15;102227.84;;;2.46;47.39
29371;BME280;16357;52.188;7.838;2023-04-04T03:38:42;102220.09;;;2.41;47.33
29371;BME280;16357;52.188;7.838;2023-04-04T03:41:08;102214.94;;;2.38;47.37
29371;BME280;16357;52.188;7.838;2023-04-04T03:43:34;102220.38;;;2.35;47.59
29371;BME280;16357;52.188;7.838;2023-04-04T03:46:02;102217.88;;;2.32;47.50
29371;BME280;16357;52.188;7.838;2023-04-04T03:48:29;102220.56;;;2.30;47.68
29371;BME280;16357;52.188;7.838;2023-04-04T03:50:57;102224.19;;;2.28;47.62
29371;BME280;16357;52.188;7.838;2023-04-04T03:53:24;102230.50;;;2.25;47.74
29371;BME280;16357;52.188;7.838;2023-04-04T03:55:51;102219.94;;;2.24;47.83
29371;BME280;16357;52.188;7.838;2023-04-04T03:58:18;102227.03;;;2.23;47.65
29371;BME280;16357;52.188;7.838;2023-04-04T04:00:44;102218.28;;;2.21;47.75
29371;BME280;16357;52.188;7.838;2023-04-04T04:03:11;102211.28;;;2.20;48.00
29371;BME280;16357;52.188;7.838;2023-04-04T04:05:40;102204.28;;;2.19;47.92
29371;BME280;16357;52.188;7.838;2023-04-04T04:08:07;102206.13;;;2.17;47.62
29371;BME280;16357;52.188;7.838;2023-04-04T04:10:34;102196.47;;;2.16;47.94
29371;BME280;16357;52.188;7.838;2023-04-04T04:13:00;102207.97;;;2.15;48.04
29371;BME280;16357;52.188;7.838;2023-04-04T04:15:28;102209.81;;;2.13;47.98
29371;BME280;16357;52.188;7.838;2023-04-04T04:17:54;102211.63;;;2.12;48.22
29371;BME280;16357;52.188;7.838;2023-04-04T04:20:21;102212.56;;;2.11;47.80
29371;BME280;16357;52.188;7.838;2023-04-04T04:22:47;102209.97;;;2.10;48.13
29371;BME280;16357;52.188;7.838;2023-04-04T04:25:14;102216.25;;;2.07;48.01
29371;BME280;16357;52.188;7.838;2023-04-04T04:27:41;102216.25;;;2.07;48.26
29371;BME280;16357;52.188;7.838;2023-04-04T04:30:08;102218.09;;;2.05;48.42
29371;BME280;16357;52.188;7.838;2023-04-04T04:32:35;102214.59;;;2.05;48.52
29371;BME280;16357;52.188;7.838;2023-04-04T04:35:01;102214.66;;;2.03;48.36
29371;BME280;16357;52.188;7.838;2023-04-04T04:37:28;102208.56;;;2.01;48.66
29371;BME280;16357;52.188;7.838;2023-04-04T04:39:54;102205.06;;;2.01;48.53
29371;BME280;16357;52.188;7.838;2023-04-04T04:42:21;102207.78;;;1.99;48.74
29371;BME280;16357;52.188;7.838;2023-04-04T04:44:47;102210.50;;;1.97;48.69
29371;BME280;16357;52.188;7.838;2023-04-04T04:47:14;102205.31;;;1.94;48.62
29371;BME280;16357;52.188;7.838;2023-04-04T04:49:40;102207.19;;;1.92;48.98
29371;BME280;16357;52.188;7.838;2023-04-04T04:52:08;102211.59;;;1.92;48.91
29371;BME280;16357;52.188;7.838;2023-04-04T04:54:35;102197.59;;;1.90;48.85
29371;BME280;16357;52.188;7.838;2023-04-04T04:57:01;102200.28;;;1.88;49.05
29371;BME280;16357;52.188;7.838;2023-04-04T04:59:27;102196.84;;;1.86;49.38
29371;BME280;16357;52.188;7.838;2023-04-04T05:01:54;102197.78;;;1.85;49.50
29371;BME280;16357;52.188;7.838;2023-04-04T05:04:21;102202.25;;;1.83;49.48
29371;BME280;16357;52.188;7.838;2023-04-04T05:06:47;102207.59;;;1.82;49.36
29371;BME280;16357;52.188;7.838;2023-04-04T05:09:14;102218.19;;;1.82;49.34
29371;BME280;16357;52.188;7.838;2023-04-04T05:11:40;102212.19;;;1.78;49.01
29371;BME280;16357;52.188;7.838;2023-04-04T05:14:07;102218.41;;;1.77;49.25
29371;BME280;16357;52.188;7.838;2023-04-04T05:16:33;102221.09;;;1.75;49.28
29371;BME280;16357;52.188;7.838;2023-04-04T05:18:59;102224.69;;;1.74;49.33
29371;BME280;16357;52.188;7.838;2023-04-04T05:21:26;102235.31;;;1.73;49.47
29371;BME280;16357;52.188;7.838;2023-04-04T05:23:53;102232.66;;;1.73;49.63
29371;BME280;16357;52.188;7.838;2023-04-04T05:26:20;102229.16;;;1.72;49.49
29371;BME280;16357;52.188;7.838;2023-04-04T05:28:46;102229.16;;;1.72;49.59
29371;BME280;16357;52.188;7.838;2023-04-04T05:31:13;102230.09;;;1.71;49.80
29371;BME280;16357;52.188;7.838;2023-04-04T05:33:39;102227.47;;;1.71;50.09
29371;BME280;16357;52.188;7.838;2023-04-04T05:36:06;102237.16;;;1.71;49.96
29371;BME280;16357;52.188;7.838;2023-04-04T05:38:32;102236.25;;;1.72;49.93
29371;BME280;16357;52.188;7.838;2023-04-04T05:40:59;102231.81;;;1.72;49.97
29371;BME280;16357;52.188;7.838;2023-04-04T05:43:25;102240.59;;;1.73;50.17
29371;BME280;16357;52.188;7.838;2023-04-04T05:45:52;102235.25;;;1.74;50.05
29371;BME280;16357;52.188;7.838;2023-04-04T05:48:18;102238.72;;;1.77;50.21
29371;BME280;16357;52.188;7.838;2023-04-04T05:50:45;102249.16;;;1.80;50.25
29371;BME280;16357;52.188;7.838;2023-04-04T05:53:12;102243.66;;;1.84;50.11
29371;BME280;16357;52.188;7.838;2023-04-04T05:55:38;102252.34;;;1.88;50.34
29371;BME280;16357;52.188;7.838;2023-04-04T05:58:05;102252.22;;;1.91;50.16
29371;BME280;16357;52.188;7.838;2023-04-04T06:00:31;102247.59;;;1.96;50.23
29371;BME280;16357;52.188;7.838;2023-04-04T06:02:57;102253.56;;;2.01;50.45
29371;BME280;16357;52.188;7.838;2023-04-04T06:05:24;102256.03;;;2.06;50.36
29371;BME280;16357;52.188;7.838;2023-04-04T06:07:50;102260.19;;;2.11;50.27
29371;BME280;16357;52.188;7.838;2023-04-04T06:10:17;102263.53;;;2.16;50.37
29371;BME280;16357;52.188;7.838;2023-04-04T06:12:43;102265.09;;;2.20;49.97
29371;BME280;16357;52.188;7.838;2023-04-04T06:15:10;102263.91;;;2.28;49.83
29371;BME280;16357;52.188;7.838;2023-04-04T06:17:36;102266.28;;;2.34;49.87
29371;BME280;16357;52.188;7.838;2023-04-04T06:20:03;102259.00;;;2.39;50.03
29371;BME280;16357;52.188;7.838;2023-04-04T06:22:30;102258.69;;;2.47;49.77
29371;BME280;16357;52.188;7.838;2023-04-04T06:24:57;102255.78;;;2.53;49.61
29371;BME280;16357;52.188;7.838;2023-04-04T06:27:23;102263.38;;;2.60;49.41
29371;BME280;16357;52.188;7.838;2023-04-04T06:29:49;102263.13;;;2.67;49.57
29371;BME280;16357;52.188;7.838;2023-04-04T06:32:16;102259.25;;;2.74;49.46
29371;BME280;16357;52.188;7.838;2023-04-04T06:34:42;102258.06;;;2.81;49.51
29371;BME280;16357;52.188;7.838;2023-04-04T06:37:09;102263.88;;;2.89;49.78
29371;BME280;16357;52.188;7.838;2023-04-04T06:39:35;102267.03;;;2.97;50.07
29371;BME280;16357;52.188;7.838;2023-04-04T06:42:02;102271.94;;;3.06;49.51
29371;BME280;16357;52.188;7.838;2023-04-04T06:44:29;102270.50;;;3.18;49.35
29371;BME280;16357;52.188;7.838;2023-04-04T06:46:55;102276.25;;;3.28;49.04
29371;BME280;16357;52.188;7.838;2023-04-04T06:49:22;102275.72;;;3.39;49.00
29371;BME280;16357;52.188;7.838;2023-04-04T06:51:48;102270.88;;;3.48;48.78
29371;BME280;16357;52.188;7.838;2023-04-04T06:54:16;102275.66;;;3.59;48.97
29371;BME280;16357;52.188;7.838;2023-04-04T06:56:42;102279.50;;;3.71;49.00
29371;BME280;16357;52.188;7.838;2023-04-04T06:59:09;102279.88;;;3.82;48.70
29371;BME280;16357;52.188;7.838;2023-04-04T07:01:37;102280.19;;;3.93;48.67
29371;BME280;16357;52.188;7.838;2023-04-04T07:04:04;102279.59;;;4.06;48.31
29371;BME280;16357;52.188;7.838;2023-04-04T07:06:30;102273.66;;;4.18;48.31
29371;BME280;16357;52.188;7.838;2023-04-04T07:08:57;102273.03;;;4.30;48.53
29371;BME280;16357;52.188;7.838;2023-04-04T07:11:23;102277.72;;;4.43;47.91
29371;BME280;16357;52.188;7.838;2023-04-04T07:13:49;102274.34;;;4.56;47.85
29371;BME280;16357;52.188;7.838;2023-04-04T07:16:16;102276.28;;;4.70;48.07
29371;BME280;16357;52.188;7.838;2023-04-04T07:18:42;102269.47;;;4.82;47.53
29371;BME280;16357;52.188;7.838;2023-04-04T07:21:09;102268.91;;;4.93;47.57
29371;BME280;16357;52.188;7.838;2023-04-04T07:23:35;102272.63;;;5.06;47.20
29371;BME280;16357;52.188;7.838;2023-04-04T07:26:02;102279.16;;;5.16;46.68
29371;BME280;16357;52.188;7.838;2023-04-04T07:28:28;102271.44;;;5.27;46.55
29371;BME280;16357;52.188;7.838;2023-04-04T07:30:58;102272.72;;;5.36;46.54
29371;BME280;16357;52.188;7.838;2023-04-04T07:33:24;102269.66;;;5.44;46.39
29371;BME280;16357;52.188;7.838;2023-04-04T07:35:51;102269.22;;;5.52;46.51
29371;BME280;16357;52.188;7.838;2023-04-04T07:38:18;102275.06;;;5.58;46.23
29371;BME280;16357;52.188;7.838;2023-04-04T07:40:44;102272.06;;;5.64;46.15
29371;BME280;16357;52.188;7.838;2023-04-04T07:43:13;102269.22;;;5.67;46.04
29371;BME280;16357;52.188;7.838;2023-04-04T07:45:39;102265.44;;;5.71;45.94
29371;BME280;16357;52.188;7.838;2023-04-04T07:48:06;102264.22;;;5.77;46.04
29371;BME280;16357;52.188;7.838;2023-04-04T07:50:33;102262.06;;;5.84;45.91
29371;BME280;16357;52.188;7.838;2023-04-04T07:52:59;102262.66;;;5.89;46.16
29371;BME280;16357;52.188;7.838;2023-04-04T07:55:25;102258.72;;;5.96;45.68
29371;BME280;16357;52.188;7.838;2023-04-04T07:57:52;102253.81;;;6.04;46.08
29371;BME280;16357;52.188;7.838;2023-04-04T08:00:20;102252.41;;;6.13;45.53
29371;BME280;16357;52.188;7.838;2023-04-04T08:02:52;102255.41;;;6.23;45.79
29371;BME280;16357;52.188;7.838;2023-04-04T08:05:19;102245.25;;;6.29;45.69
29371;BME280;16357;52.188;7.838;2023-04-04T08:07:45;102250.09;;;6.37;45.54
29371;BME280;16357;52.188;7.838;2023-04-04T08:10:12;102249.56;;;6.46;44.69
29371;BME280;16357;52.188;7.838;2023-04-04T08:12:39;102248.97;;;6.55;44.82
29371;BME280;16357;52.188;7.838;2023-04-04T08:15:06;102246.63;;;6.65;44.81
29371;BME280;16357;52.188;7.838;2023-04-04T08:17:32;102246.06;;;6.74;44.81
29371;BME280;16357;52.188;7.838;2023-04-04T08:19:59;102252.63;;;6.83;44.35
29371;BME280;16357;52.188;7.838;2023-04-04T08:22:25;102246.72;;;6.92;43.93
29371;BME280;16357;52.188;7.838;2023-04-04T08:24:52;102243.50;;;7.01;43.87
29371;BME280;16357;52.188;7.838;2023-04-04T08:27:18;102242.91;;;7.11;43.72
29371;BME280;16357;52.188;7.838;2023-04-04T08:29:45;102241.56;;;7.18;43.02
29371;BME280;16357;52.188;7.838;2023-04-04T08:32:13;102242.69;;;7.28;42.71
29371;BME280;16357;52.188;7.838;2023-04-04T08:34:40;102239.63;;;7.34;42.50
29371;BME280;16357;52.188;7.838;2023-04-04T08:37:07;102242.66;;;7.42;42.57
29371;BME280;16357;52.188;7.838;2023-04-04T08:39:33;102234.25;;;7.48;42.31
29371;BME280;16357;52.188;7.838;2023-04-04T08:42:02;102239.19;;;7.55;42.16
29371;BME280;16357;52.188;7.838;2023-04-04T08:44:29;102237.00;;;7.61;41.81
29371;BME280;16357;52.188;7.838;2023-04-04T08:47:01;102235.72;;;7.67;41.51
29371;BME280;16357;52.188;7.838;2023-04-04T08:49:28;102233.63;;;7.72;41.51
29371;BME280;16357;52.188;7.838;2023-04-04T08:51:57;102233.19;;;7.78;41.87
29371;BME280;16357;52.188;7.838;2023-04-04T08:54:27;102242.53;;;7.85;42.38
29371;BME280;16357;52.188;7.838;2023-04-04T08:56:53;102234.09;;;7.91;42.17
29371;BME280;16357;52.188;7.838;2023-04-04T08:59:20;102233.50;;;8.01;40.97
29371;BME280;16357;52.188;7.838;2023-04-04T09:01:47;102240.13;;;8.08;41.04
29371;BME280;16357;52.188;7.838;2023-04-04T09:04:14;102236.09;;;8.15;41.11
29371;BME280;16357;52.188;7.838;2023-04-04T09:06:40;102240.06;;;8.22;41.61
29371;BME280;16357;52.188;7.838;2023-04-04T09:09:07;102237.09;;;8.27;40.74
29371;BME280;16357;52.188;7.838;2023-04-04T09:11:35;102228.63;;;8.33;40.95
29371;BME280;16357;52.188;7.838;2023-04-04T09:14:04;102232.69;;;8.39;40.27
29371;BME280;16357;52.188;7.838;2023-04-04T09:16:30;102232.53;;;8.42;39.78
29371;BME280;16357;52.188;7.838;2023-04-04T09:18:57;102228.69;;;8.46;39.72
29371;BME280;16357;52.188;7.838;2023-04-04T09:21:23;102221.41;;;8.48;40.20
29371;BME280;16357;52.188;7.838;2023-04-04T09:24:00;102223.66;;;8.54;40.34
29371;BME280;16357;52.188;7.838;2023-04-04T09:26:27;102226.13;;;8.57;40.49
29371;BME280;16357;52.188;7.838;2023-04-04T09:28:54;102222.91;;;8.65;39.97
29371;BME280;16357;52.188;7.838;2023-04-04T09:31:23;102225.03;;;8.72;40.89
29371;BME280;16357;52.188;7.838;2023-04-04T09:33:49;102224.59;;;8.78;39.87
29371;BME280;16357;52.188;7.838;2023-04-04T09:36:16;102221.38;;;8.86;39.51
29371;BME280;16357;52.188;7.838;2023-04-04T09:38:43;102211.13;;;8.93;39.69
29371;BME280;16357;52.188;7.838;2023-04-04T09:41:15;102214.31;;;8.98;39.47
29371;BME280;16357;52.188;7.838;2023-04-04T09:43:44;102208.53;;;9.04;38.64
29371;BME280;16357;52.188;7.838;2023-04-04T09:46:10;102202.84;;;9.09;38.89
29371;BME280;16357;52.188;7.838;2023-04-04T09:48:37;102198.97;;;9.13;38.41
29371;BME280;16357;52.188;7.838;2023-04-04T09:51:05;102196.81;;;9.18;38.35
29371;BME280;16357;52.188;7.838;2023-04-04T09:53:33;102199.91;;;9.25;37.64
29371;BME280;16357;52.188;7.838;2023-04-04T09:56:01;102201.38;;;9.29;37.16
29371;BME280;16357;52.188;7.838;2023-04-04T09:58:29;102193.00;;;9.33;37.00
29371;BME280;16357;52.188;7.838;2023-04-04T10:01:02;102196.31;;;9.37;37.38
29371;BME280;16357;52.188;7.838;2023-04-04T10:03:29;102196.22;;;9.38;36.91
29371;BME280;16357;52.188;7.838;2023-04-04T10:06:00;102195.97;;;9.41;37.68
29371;BME280;16357;52.188;7.838;2023-04-04T10:08:30;102189.44;;;9.45;37.59
29371;BME280;16357;52.188;7.838;2023-04-04T10:11:02;102199.59;;;9.53;37.43
29371;BME280;16357;52.188;7.838;2023-04-04T10:13:37;102189.25;;;9.60;37.55
29371;BME280;16357;52.188;7.838;2023-04-04T10:16:09;102189.53;;;9.68;37.38
29371;BME280;16357;52.188;7.838;2023-04-04T10:18:39;102194.47;;;9.74;36.96
29371;BME280;16357;52.188;7.838;2023-04-04T10:21:07;102183.28;;;9.80;36.82
29371;BME280;16357;52.188;7.838;2023-04-04T10:23:37;102182.03;;;9.84;36.64
29371;BME280;16357;52.188;7.838;2023-04-04T10:26:04;102186.13;;;9.90;36.65
29371;BME280;16357;52.188;7.838;2023-04-04T10:28:31;102171.50;;;9.94;36.51
29371;BME280;16357;52.188;7.838;2023-04-04T10:31:21;102177.34;;;9.99;36.76
29371;BME280;16357;52.188;7.838;2023-04-04T10:34:12;102178.72;;;10.05;37.08
29371;BME280;16357;52.188;7.838;2023-04-04T10:36:44;102172.91;;;10.11;36.77
29371;BME280;16357;52.188;7.838;2023-04-04T10:39:23;102165.22;;;10.18;37.39
29371;BME280;16357;52.188;7.838;2023-04-04T10:41:51;102159.16;;;10.27;37.58
29371;BME280;16357;52.188;7.838;2023-04-04T10:44:29;102158.19;;;10.39;37.27
29371;BME280;16357;52.188;7.838;2023-04-04T10:47:03;102165.06;;;10.54;37.17
29371;BME280;16357;52.188;7.838;2023-04-04T10:49:32;102156.88;;;10.67;36.20
29371;BME280;16357;52.188;7.838;2023-04-04T10:51:59;102140.78;;;10.79;35.61
29371;BME280;16357;52.188;7.838;2023-04-04T10:54:27;102138.94;;;10.90;35.29
29371;BME280;16357;52.188;7.838;2023-04-04T10:56:56;102142.59;;;11.01;35.50
29371;BME280;16357;52.188;7.838;2023-04-04T10:59:26;102135.88;;;11.06;34.55
29371;BME280;16357;52.188;7.838;2023-04-04T11:01:55;102144.16;;;11.14;34.03
29371;BME280;16357;52.188;7.838;2023-04-04T11:04:34;102149.16;;;11.19;34.07
29371;BME280;16357;52.188;7.838;2023-04-04T11:07:14;102138.16;;;11.22;33.83
29371;BME280;16357;52.188;7.838;2023-04-04T11:12:15;102130.78;;;11.24;33.24
29371;BME280;16357;52.188;7.838;2023-04-04T11:20:17;102129.69;;;11.27;33.37
29371;BME280;16357;52.188;7.838;2023-04-04T11:22:44;102124.31;;;11.27;33.65
29371;BME280;16357;52.188;7.838;2023-04-04T11:27:53;102116.25;;;11.38;34.32
29371;BME280;16357;52.188;7.838;2023-04-04T11:30:20;102108.25;;;11.48;34.53
29371;BME280;16357;52.188;7.838;2023-04-04T11:32:47;102109.06;;;11.59;33.94
29371;BME280;16357;52.188;7.838;2023-04-04T11:35:29;102111.41;;;11.74;33.42
29371;BME280;16357;52.188;7.838;2023-04-04T11:40:41;102102.53;;;11.94;33.70
29371;BME280;16357;52.188;7.838;2023-04-04T11:43:09;102105.81;;;11.98;33.50
29371;BME280;16357;52.188;7.838;2023-04-04T11:45:37;102094.81;;;12.01;33.04
29371;BME280;16357;52.188;7.838;2023-04-04T11:48:09;102091.00;;;12.03;32.84
29371;BME280;16357;52.188;7.838;2023-04-04T11:50:37;102091.56;;;12.07;33.25
29371;BME280;16357;52.188;7.838;2023-04-04T11:53:06;102096.69;;;12.10;32.94
29371;BME280;16357;52.188;7.838;2023-04-04T11:55:40;102093.44;;;12.16;33.56
29371;BME280;16357;52.188;7.838;2023-04-04T11:58:09;102090.38;;;12.21;32.43
29371;BME280;16357;52.188;7.838;2023-04-04T12:00:39;102092.66;;;12.25;32.06
29371;BME280;16357;52.188;7.838;2023-04-04T12:03:10;102086.00;;;12.29;32.57
29371;BME280;16357;52.188;7.838;2023-04-04T12:05:38;102078.53;;;12.33;31.74
29371;BME280;16357;52.188;7.838;2023-04-04T12:08:08;102074.72;;;12.36;32.39
29371;BME280;16357;52.188;7.838;2023-04-04T12:10:36;102078.16;;;12.38;31.67
29371;BME280;16357;52.188;7.838;2023-04-04T12:13:07;102079.56;;;12.42;32.33
29371;BME280;16357;52.188;7.838;2023-04-04T12:15:35;102078.44;;;12.44;32.24
29371;BME280;16357;52.188;7.838;2023-04-04T12:18:06;102067.00;;;12.52;32.00
29371;BME280;16357;52.188;7.838;2023-04-04T12:20:36;102064.63;;;12.59;32.39
29371;BME280;16357;52.188;7.838;2023-04-04T12:23:03;102058.69;;;12.65;31.41
29371;BME280;16357;52.188;7.838;2023-04-04T12:25:30;102057.28;;;12.70;32.06
29371;BME280;16357;52.188;7.838;2023-04-04T12:28:00;102059.28;;;12.78;31.52
29371;BME280;16357;52.188;7.838;2023-04-04T12:30:27;102055.91;;;12.86;31.08
29371;BME280;16357;52.188;7.838;2023-04-04T12:32:54;102049.09;;;12.91;31.13
29371;BME280;16357;52.188;7.838;2023-04-04T12:35:21;102038.75;;;12.96;31.40
29371;BME280;16357;52.188;7.838;2023-04-04T12:37:58;102031.81;;;13.04;31.93
29371;BME280;16357;52.188;7.838;2023-04-04T12:40:28;102025.56;;;13.13;31.97
29371;BME280;16357;52.188;7.838;2023-04-04T12:42:54;102021.16;;;13.22;31.46
29371;BME280;16357;52.188;7.838;2023-04-04T12:45:25;102024.75;;;13.32;30.75
29371;BME280;16357;52.188;7.838;2023-04-04T12:47:53;102018.81;;;13.38;30.45
29371;BME280;16357;52.188;7.838;2023-04-04T12:50:26;102015.94;;;13.39;30.15
29371;BME280;16357;52.188;7.838;2023-04-04T12:52:53;102015.38;;;13.36;29.98
29371;BME280;16357;52.188;7.838;2023-04-04T12:55:33;102010.41;;;13.31;30.26
29371;BME280;16357;52.188;7.838;2023-04-04T12:58:00;102008.88;;;13.29;30.49
29371;BME280;16357;52.188;7.838;2023-04-04T13:00:27;102008.00;;;13.28;30.32
29371;BME280;16357;52.188;7.838;2023-04-04T13:02:54;101992.56;;;13.30;30.07
29371;BME280;16357;52.188;7.838;2023-04-04T13:05:23;101994.97;;;13.33;29.97
29371;BME280;16357;52.188;7.838;2023-04-04T13:08:07;101996.66;;;13.34;30.07
29371;BME280;16357;52.188;7.838;2023-04-04T13:11:02;101986.03;;;13.33;30.31
29371;BME280;16357;52.188;7.838;2023-04-04T13:13:34;101986.59;;;13.27;29.88
29371;BME280;16357;52.188;7.838;2023-04-04T13:16:03;101986.13;;;13.22;29.12
29371;BME280;16357;52.188;7.838;2023-04-04T13:18:34;101970.53;;;13.15;29.33